TAMU Turf Lab's Hourly Summary for Saturday, May 12, 2018
Hour Temp
(f)
RH
(%)
Solar Rad.
(MJ/m2)
Rainfall
(in)
Wind
(mph)
5/12/2018 12:00 AM 74 70 0 0 7.12
5/12/2018 1:00 AM 73 76 0 0 7.45
5/12/2018 2:00 AM 72 82 0 0 7.12
5/12/2018 3:00 AM 72 86 0 0 7.27
5/12/2018 4:00 AM 72 89 0 0 7.13
5/12/2018 5:00 AM 72 88 0 0 7.87
5/12/2018 6:00 AM 73 87 0 0 8.53
5/12/2018 7:00 AM 73 87 0.01 0 8.45
5/12/2018 8:00 AM 73 85 0.18 0 6.66
5/12/2018 9:00 AM 74 79 0.9 0 8.83
5/12/2018 10:00 AM 75 72 1.01 0 8.24
5/12/2018 11:00 AM 78 61 2.19 0 10.73
5/12/2018 12:00 PM 80 53 2.45 0 10.6
5/12/2018 1:00 PM 83 51 2.84 0 9.96
5/12/2018 2:00 PM 83 45 2.93 0 9.32
5/12/2018 3:00 PM 86 44 2.5 0 9.93
5/12/2018 4:00 PM 87 45 2.76 0 10.01
5/12/2018 5:00 PM 87 43 2.25 0 9.48
5/12/2018 6:00 PM 87 42 1.74 0 9.94
5/12/2018 7:00 PM 85 45 0.66 0 8.74
5/12/2018 8:00 PM 84 50 0.31 0 6.99
5/12/2018 9:00 PM 81 55 0.01 0 7.29
5/12/2018 10:00 PM 79 60 0 0 8.56
5/12/2018 11:00 PM 77 67 0 0 7.77
Data Summary 78 65 22.74 0.00 8.50